Time;durP1;ratioP1;P1;durP2;ratioP2;P2;SDS_P1;SDS_P2;PMS_P1;PMS_P2;Temp;Humidity;BMP_temperature;BMP_pressure;BME280_temperature;BME280_humidity;BME280_pressure;Samples;Min_cycle;Max_cycle;Signal;HPM_P1;HPM_P2
2023/10/26 00:00:35;;;;;;;14.27;9.10;;;11.80;99.90;;;;;;5031585;28;20272;-87
2023/10/26 00:03:00;;;;;;;15.23;9.80;;;11.80;99.90;;;;;;5032134;28;20252;-87
2023/10/26 00:05:26;;;;;;;15.57;9.70;;;11.80;99.90;;;;;;5031966;28;20252;-88
2023/10/26 00:07:52;;;;;;;12.13;9.00;;;11.70;99.90;;;;;;5032096;28;20182;-89
2023/10/26 00:10:18;;;;;;;16.73;10.10;;;11.70;99.90;;;;;;5032527;28;20206;-88
2023/10/26 00:12:44;;;;;;;15.00;10.07;;;11.50;99.90;;;;;;5032233;28;20629;-89
2023/10/26 00:15:10;;;;;;;18.17;9.47;;;11.60;99.90;;;;;;5033916;28;20192;-87
2023/10/26 00:17:37;;;;;;;16.60;9.90;;;11.50;99.90;;;;;;5033959;28;20178;-88
2023/10/26 00:20:06;;;;;;;18.03;10.23;;;11.50;99.90;;;;;;5034087;28;20273;-85
2023/10/26 00:22:32;;;;;;;16.40;10.17;;;11.50;99.90;;;;;;5031195;28;20182;-86
2023/10/26 00:24:58;;;;;;;17.97;10.00;;;11.60;99.90;;;;;;5031281;28;20170;-86
2023/10/26 00:27:24;;;;;;;16.97;10.30;;;11.50;99.90;;;;;;5030856;28;20201;-86
2023/10/26 00:29:49;;;;;;;15.53;10.63;;;11.60;99.90;;;;;;5029779;28;20192;-85
2023/10/26 00:32:15;;;;;;;15.93;9.83;;;11.60;99.90;;;;;;5031351;28;20694;-86
2023/10/26 00:34:41;;;;;;;16.77;10.60;;;11.90;99.90;;;;;;5031275;28;20596;-86
2023/10/26 00:37:07;;;;;;;16.13;9.30;;;11.70;99.90;;;;;;5031374;28;20660;-85
2023/10/26 00:39:33;;;;;;;16.57;10.40;;;11.70;99.90;;;;;;5031300;28;20169;-84
2023/10/26 00:41:59;;;;;;;14.93;9.87;;;11.80;99.90;;;;;;5015511;28;20617;-85
2023/10/26 00:44:25;;;;;;;14.13;10.43;;;11.70;99.90;;;;;;5035299;28;20169;-84
2023/10/26 00:46:52;;;;;;;16.57;10.00;;;11.90;99.90;;;;;;5017309;28;20264;-84
2023/10/26 00:49:19;;;;;;;13.53;9.50;;;11.70;99.90;;;;;;5036195;28;20205;-84
2023/10/26 00:51:51;;;;;;;15.10;10.37;;;11.70;99.90;;;;;;5038580;28;20197;-85
2023/10/26 00:54:19;;;;;;;16.50;9.90;;;11.40;99.90;;;;;;5040973;28;20212;-84
2023/10/26 00:56:47;;;;;;;13.77;10.27;;;11.80;99.90;;;;;;5044410;28;20232;-85
2023/10/26 00:59:14;;;;;;;15.33;10.63;;;11.70;99.90;;;;;;5049819;28;20166;-85
2023/10/26 01:01:42;;;;;;;15.37;10.70;;;11.60;99.90;;;;;;5050798;28;20192;-87
2023/10/26 01:04:07;;;;;;;18.07;11.40;;;11.70;99.90;;;;;;5043347;28;20201;-87
2023/10/26 01:06:33;;;;;;;16.43;11.10;;;11.80;99.90;;;;;;5048629;28;20233;-85
2023/10/26 01:08:59;;;;;;;16.40;10.63;;;11.80;99.90;;;;;;5052930;28;20170;-89
2023/10/26 01:11:24;;;;;;;14.43;10.57;;;11.80;99.90;;;;;;5053866;28;20204;-87
2023/10/26 01:13:50;;;;;;;17.50;10.23;;;11.80;99.90;;;;;;5042844;28;20261;-91
2023/10/26 01:16:17;;;;;;;15.77;10.17;;;11.80;99.90;;;;;;5037350;28;20174;-91
2023/10/26 01:18:43;;;;;;;17.17;10.93;;;11.70;99.90;;;;;;5019913;28;20193;-90
2023/10/26 01:21:10;;;;;;;16.70;11.10;;;11.70;99.90;;;;;;5037107;28;20877;-90
2023/10/26 01:23:35;;;;;;;17.33;10.87;;;11.70;99.90;;;;;;5031628;28;20182;-90
2023/10/26 01:26:01;;;;;;;17.23;11.90;;;11.70;99.90;;;;;;5016931;28;20206;-91
2023/10/26 01:28:27;;;;;;;16.00;11.03;;;11.80;99.90;;;;;;4999910;28;20178;-91
2023/10/26 01:30:52;;;;;;;15.70;10.97;;;11.70;99.90;;;;;;5026646;28;20546;-90
2023/10/26 01:33:19;;;;;;;18.30;11.63;;;11.70;99.90;;;;;;5036238;28;20174;-90
2023/10/26 01:35:45;;;;;;;16.93;11.20;;;11.80;99.90;;;;;;5036768;28;20328;-90
2023/10/26 01:38:12;;;;;;;16.20;10.70;;;11.80;99.90;;;;;;5036432;28;20193;-90
2023/10/26 01:40:38;;;;;;;18.50;10.70;;;11.70;99.90;;;;;;5036646;28;20534;-89
2023/10/26 01:43:04;;;;;;;15.93;10.73;;;11.60;99.90;;;;;;5036972;28;20174;-90
2023/10/26 01:45:29;;;;;;;16.23;10.97;;;11.60;99.90;;;;;;5043442;28;20206;-89
2023/10/26 01:47:55;;;;;;;13.73;10.17;;;11.60;99.90;;;;;;5053693;28;20226;-89
2023/10/26 01:50:21;;;;;;;15.27;11.07;;;11.20;99.90;;;;;;5034914;28;20169;-90
2023/10/26 01:52:46;;;;;;;16.40;10.70;;;11.50;99.90;;;;;;5051226;28;20182;-89
2023/10/26 01:55:12;;;;;;;17.10;10.20;;;11.60;99.90;;;;;;5051995;28;20166;-90
2023/10/26 01:57:38;;;;;;;14.70;9.93;;;11.60;99.90;;;;;;5036342;28;20237;-90
2023/10/26 02:00:04;;;;;;;15.87;9.87;;;11.60;99.90;;;;;;5037280;28;20185;-91
2023/10/26 02:02:30;;;;;;;15.60;10.67;;;11.60;99.90;;;;;;5057952;28;20237;-91
2023/10/26 02:04:56;;;;;;;13.50;9.53;;;11.70;99.90;;;;;;5051515;28;20186;-91
2023/10/26 02:07:21;;;;;;;17.03;10.70;;;11.60;99.90;;;;;;5039237;28;20218;-90
2023/10/26 02:09:47;;;;;;;13.97;9.90;;;11.70;99.90;;;;;;5019019;28;20551;-91
2023/10/26 02:12:13;;;;;;;16.30;9.73;;;11.80;99.90;;;;;;5036406;28;20621;-87
2023/10/26 02:14:38;;;;;;;15.50;9.17;;;11.80;99.90;;;;;;5035953;28;20258;-88
2023/10/26 02:17:05;;;;;;;15.47;9.73;;;12.10;99.90;;;;;;5016866;28;20205;-89
2023/10/26 02:19:30;;;;;;;15.70;9.80;;;11.80;99.90;;;;;;5034315;28;20178;-88
2023/10/26 02:21:56;;;;;;;16.80;10.20;;;10.50;99.90;;;;;;5033744;28;20174;-89
2023/10/26 02:24:22;;;;;;;17.83;10.43;;;11.70;99.90;;;;;;5034409;28;20181;-89
2023/10/26 02:26:47;;;;;;;16.13;9.83;;;11.70;99.90;;;;;;5033960;28;20220;-88
2023/10/26 02:29:13;;;;;;;16.40;11.13;;;11.80;99.90;;;;;;5034428;28;20162;-89
2023/10/26 02:31:38;;;;;;;17.57;11.07;;;11.90;99.90;;;;;;5034029;28;20265;-89
2023/10/26 02:34:04;;;;;;;16.57;11.27;;;11.80;99.90;;;;;;5034760;28;20640;-90
2023/10/26 02:36:30;;;;;;;17.00;11.03;;;11.80;99.90;;;;;;5016477;28;20224;-90
2023/10/26 02:38:56;;;;;;;14.23;11.00;;;11.80;99.90;;;;;;5017239;28;20189;-90
2023/10/26 02:41:21;;;;;;;17.80;11.77;;;11.80;99.90;;;;;;5034371;28;20174;-90
2023/10/26 02:43:47;;;;;;;16.63;11.30;;;11.80;99.90;;;;;;5034375;28;20659;-89
2023/10/26 02:46:13;;;;;;;15.60;10.87;;;12.10;99.90;;;;;;5034122;28;20672;-89
2023/10/26 02:48:38;;;;;;;16.07;11.07;;;11.70;99.90;;;;;;5016931;28;20197;-89
2023/10/26 02:51:04;;;;;;;17.17;10.77;;;11.70;99.90;;;;;;5033825;28;20189;-90
2023/10/26 02:53:30;;;;;;;19.37;11.37;;;11.80;99.90;;;;;;5016869;28;20185;-91
2023/10/26 02:55:56;;;;;;;16.30;10.63;;;11.80;99.90;;;;;;5036227;28;20219;-89
2023/10/26 02:58:22;;;;;;;16.17;11.07;;;12.10;99.90;;;;;;5034616;28;20301;-89
2023/10/26 03:00:47;;;;;;;17.90;10.57;;;11.90;99.90;;;;;;5023208;28;20185;-88
2023/10/26 03:03:13;;;;;;;15.27;10.20;;;11.90;99.90;;;;;;5035060;28;20170;-89
2023/10/26 03:05:38;;;;;;;15.27;10.70;;;11.90;99.90;;;;;;5034868;28;20679;-89
2023/10/26 03:08:05;;;;;;;14.33;9.87;;;11.80;99.90;;;;;;5034201;28;20180;-90
2023/10/26 03:10:30;;;;;;;15.57;9.47;;;11.90;99.90;;;;;;5034176;28;20636;-90
2023/10/26 03:12:57;;;;;;;16.30;10.50;;;10.70;99.90;;;;;;5033477;28;20185;-90
2023/10/26 03:15:23;;;;;;;15.50;10.23;;;11.80;99.90;;;;;;5034291;28;20735;-91
2023/10/26 03:17:49;;;;;;;13.13;9.00;;;11.90;99.90;;;;;;5034035;28;20170;-91
2023/10/26 03:20:15;;;;;;;16.03;9.33;;;11.90;99.90;;;;;;5034548;28;20193;-91
2023/10/26 03:22:40;;;;;;;13.87;9.47;;;11.90;99.90;;;;;;5033646;28;20174;-92
2023/10/26 03:25:07;;;;;;;14.43;9.63;;;11.90;99.90;;;;;;5017314;28;20517;-91
2023/10/26 03:27:33;;;;;;;15.10;9.60;;;11.90;99.90;;;;;;5035089;28;20273;-91
2023/10/26 03:29:58;;;;;;;13.73;9.57;;;11.90;99.90;;;;;;5033893;28;20205;-90
2023/10/26 03:32:24;;;;;;;12.77;8.47;;;11.90;99.90;;;;;;5033905;28;20413;-90
2023/10/26 03:34:50;;;;;;;13.33;8.43;;;12.00;99.90;;;;;;5034849;28;20284;-90
2023/10/26 03:37:16;;;;;;;12.13;8.77;;;12.00;99.90;;;;;;5034076;28;20239;-90
2023/10/26 03:39:42;;;;;;;12.00;7.53;;;12.00;99.90;;;;;;5034744;28;20185;-92
2023/10/26 03:42:07;;;;;;;14.68;8.65;;;12.00;99.90;;;;;;5017708;28;20174;-92
2023/10/26 03:44:33;;;;;;;12.87;8.33;;;11.90;99.90;;;;;;5035506;28;20169;-91
2023/10/26 03:46:59;;;;;;;11.80;8.43;;;11.80;99.90;;;;;;5034524;28;20335;-91
2023/10/26 03:49:24;;;;;;;13.07;8.30;;;11.80;99.90;;;;;;5038175;28;20181;-90
2023/10/26 03:51:50;;;;;;;10.90;7.23;;;11.90;99.90;;;;;;5055779;28;20182;-89
2023/10/26 03:54:16;;;;;;;11.00;6.80;;;11.90;99.90;;;;;;5054889;28;20197;-92
2023/10/26 03:56:42;;;;;;;8.67;6.10;;;11.90;99.90;;;;;;5054929;28;20186;-90
2023/10/26 03:59:07;;;;;;;9.43;5.83;;;12.00;99.90;;;;;;5049173;28;20170;-90
2023/10/26 04:01:35;;;;;;;9.27;5.37;;;11.90;99.90;;;;;;5057267;28;20177;-90
2023/10/26 04:04:01;;;;;;;8.90;5.80;;;11.90;99.90;;;;;;5056269;28;20174;-90
2023/10/26 04:06:29;;;;;;;8.20;5.50;;;11.80;99.90;;;;;;5056772;28;20225;-90
2023/10/26 04:08:56;;;;;;;8.70;4.83;;;11.90;99.90;;;;;;5057143;28;20217;-90
2023/10/26 04:11:22;;;;;;;8.10;4.97;;;11.80;99.90;;;;;;5057208;28;20169;-90
2023/10/26 04:13:48;;;;;;;7.13;5.03;;;11.80;99.90;;;;;;5055465;28;20178;-90
2023/10/26 04:16:13;;;;;;;7.87;4.50;;;11.80;99.90;;;;;;5048923;28;20174;-89
2023/10/26 04:18:39;;;;;;;6.93;4.57;;;11.80;99.90;;;;;;5055536;28;20170;-89
2023/10/26 04:21:05;;;;;;;4.53;3.77;;;11.90;99.90;;;;;;5052892;28;20181;-90
2023/10/26 04:23:30;;;;;;;5.57;4.00;;;11.90;99.90;;;;;;5051195;28;20170;-89
2023/10/26 04:25:56;;;;;;;7.20;4.40;;;11.90;99.90;;;;;;5044881;28;20216;-90
2023/10/26 04:28:22;;;;;;;5.77;4.13;;;11.90;99.90;;;;;;5044272;28;20166;-90
2023/10/26 04:30:47;;;;;;;5.57;3.97;;;11.90;99.90;;;;;;5059912;28;20196;-90
2023/10/26 04:33:14;;;;;;;5.23;3.90;;;11.90;99.90;;;;;;5045682;28;20231;-90
2023/10/26 04:35:41;;;;;;;4.43;3.57;;;11.80;99.90;;;;;;5040031;28;20181;-89
2023/10/26 04:38:08;;;;;;;7.23;3.53;;;11.80;99.90;;;;;;5037955;28;20312;-90
2023/10/26 04:40:34;;;;;;;4.20;3.30;;;11.70;99.90;;;;;;5019971;28;20185;-89
2023/10/26 04:43:00;;;;;;;6.17;3.50;;;11.70;99.90;;;;;;5037275;28;20775;-90
2023/10/26 04:45:25;;;;;;;6.23;3.60;;;11.60;99.90;;;;;;5018385;28;22145;-90
2023/10/26 04:47:51;;;;;;;4.57;3.67;;;11.70;99.90;;;;;;5015678;28;20214;-90
2023/10/26 04:50:18;;;;;;;4.30;3.47;;;11.70;99.90;;;;;;5016044;28;20615;-90
2023/10/26 04:52:43;;;;;;;5.33;3.40;;;11.80;99.90;;;;;;5016008;28;20182;-90
2023/10/26 04:55:09;;;;;;;5.40;3.37;;;11.80;99.90;;;;;;5017519;28;20175;-90
2023/10/26 04:57:35;;;;;;;4.27;3.37;;;11.70;99.90;;;;;;5017386;28;20639;-90
2023/10/26 05:00:00;;;;;;;5.00;3.50;;;11.70;99.90;;;;;;5016883;28;20222;-90
2023/10/26 05:02:26;;;;;;;8.10;3.90;;;11.70;99.90;;;;;;5016184;28;20549;-90
2023/10/26 05:04:52;;;;;;;6.60;3.50;;;11.70;99.90;;;;;;5016039;28;20589;-87
2023/10/26 05:07:17;;;;;;;5.43;3.50;;;11.80;99.90;;;;;;5015439;28;20213;-87
2023/10/26 05:09:43;;;;;;;3.70;2.97;;;11.70;99.90;;;;;;5015762;28;20163;-88
2023/10/26 05:12:08;;;;;;;4.27;3.20;;;11.70;99.90;;;;;;5015613;28;20179;-87
2023/10/26 05:14:34;;;;;;;5.37;2.63;;;11.70;99.90;;;;;;5014668;28;20264;-88
2023/10/26 05:16:59;;;;;;;4.20;2.83;;;11.70;99.90;;;;;;5015849;28;20178;-88
2023/10/26 05:19:25;;;;;;;4.40;2.90;;;11.90;99.90;;;;;;5016167;28;20245;-90
2023/10/26 05:21:51;;;;;;;6.27;2.67;;;11.70;99.90;;;;;;5021670;28;20170;-90
2023/10/26 05:24:16;;;;;;;5.90;2.50;;;11.70;99.90;;;;;;5026375;28;20174;-90
2023/10/26 05:26:42;;;;;;;4.10;2.50;;;11.60;99.90;;;;;;5026507;28;20214;-90
2023/10/26 05:29:07;;;;;;;7.27;2.50;;;11.70;99.90;;;;;;5025298;28;20175;-88
2023/10/26 05:31:33;;;;;;;6.17;2.43;;;11.60;99.90;;;;;;5025283;28;20599;-89
2023/10/26 05:33:58;;;;;;;7.67;1.97;;;11.60;99.90;;;;;;5025759;28;20241;-89
2023/10/26 05:36:24;;;;;;;4.90;1.70;;;11.60;99.90;;;;;;5026283;28;20245;-89
2023/10/26 05:38:50;;;;;;;6.70;1.10;;;11.60;99.90;;;;;;5021443;28;20249;-90
2023/10/26 05:41:15;;;;;;;5.90;1.20;;;11.80;99.90;;;;;;5016576;28;20301;-91
2023/10/26 05:43:41;;;;;;;6.70;1.50;;;11.70;99.90;;;;;;5016737;28;20206;-91
2023/10/26 05:46:07;;;;;;;5.30;1.17;;;11.70;99.90;;;;;;5015978;28;20708;-90
2023/10/26 05:48:34;;;;;;;6.13;1.03;;;11.70;99.90;;;;;;5034821;28;20217;-90
2023/10/26 05:50:59;;;;;;;3.80;0.83;;;11.80;99.90;;;;;;5035237;28;20181;-91
2023/10/26 05:53:25;;;;;;;7.03;1.20;;;11.80;99.90;;;;;;5035753;28;20170;-91
2023/10/26 05:55:58;;;;;;;6.57;1.00;;;11.80;99.90;;;;;;5035431;28;20181;-91
2023/10/26 05:58:25;;;;;;;5.23;0.70;;;11.90;99.90;;;;;;5022309;28;20213;-90
2023/10/26 06:00:51;;;;;;;5.77;1.40;;;11.90;99.90;;;;;;5018734;28;20261;-90
2023/10/26 06:03:17;;;;;;;3.40;0.57;;;12.00;99.90;;;;;;5035186;28;20170;-90
2023/10/26 06:05:43;;;;;;;6.07;1.00;;;11.90;99.90;;;;;;5017520;28;20263;-91
2023/10/26 06:08:09;;;;;;;10.20;1.10;;;11.80;99.90;;;;;;5035882;28;20181;-91
2023/10/26 06:10:34;;;;;;;12.17;0.90;;;11.90;99.90;;;;;;5017168;28;20177;-90
2023/10/26 06:13:00;;;;;;;8.77;0.97;;;11.70;99.90;;;;;;5034758;28;20231;-92
2023/10/26 06:15:26;;;;;;;10.30;1.20;;;11.80;99.90;;;;;;5033542;28;20607;-87
2023/10/26 06:17:51;;;;;;;9.87;1.20;;;11.70;99.90;;;;;;5029997;28;20177;-85
2023/10/26 06:20:17;;;;;;;6.60;0.97;;;11.70;99.90;;;;;;5038794;28;20177;-87
2023/10/26 06:22:43;;;;;;;8.77;1.20;;;11.70;99.90;;;;;;5051076;28;20252;-85
2023/10/26 06:25:08;;;;;;;7.37;1.00;;;11.80;99.90;;;;;;5036277;28;20193;-83
2023/10/26 06:27:34;;;;;;;6.50;1.00;;;11.80;99.90;;;;;;5052374;28;20218;-89
2023/10/26 06:30:00;;;;;;;10.30;1.37;;;11.70;99.90;;;;;;5057706;28;20294;-83
2023/10/26 06:32:25;;;;;;;6.57;0.93;;;11.70;99.90;;;;;;5040751;28;20186;-87
2023/10/26 06:34:51;;;;;;;6.23;1.10;;;11.70;99.90;;;;;;5058183;28;20193;-85
2023/10/26 06:37:17;;;;;;;5.27;1.00;;;11.70;99.90;;;;;;5057533;28;20221;-79
2023/10/26 06:39:42;;;;;;;6.53;1.80;;;11.70;99.90;;;;;;5047242;28;20178;-86
2023/10/26 06:42:08;;;;;;;4.57;1.13;;;11.70;99.90;;;;;;5015564;28;20176;-82
2023/10/26 06:44:34;;;;;;;7.97;1.13;;;11.70;99.90;;;;;;5031808;28;20185;-82
2023/10/26 06:46:59;;;;;;;6.63;0.97;;;11.70;99.90;;;;;;5015141;28;20244;-81
2023/10/26 06:49:25;;;;;;;5.80;1.20;;;11.70;99.90;;;;;;5032914;28;20263;-78
2023/10/26 06:51:51;;;;;;;4.73;1.00;;;11.80;99.90;;;;;;5038136;28;20189;-80
2023/10/26 06:54:16;;;;;;;6.33;1.63;;;11.60;99.90;;;;;;5038518;28;20170;-79
2023/10/26 06:56:42;;;;;;;8.77;1.40;;;11.70;99.90;;;;;;5038614;28;20158;-80
2023/10/26 06:59:09;;;;;;;5.17;1.47;;;11.30;99.90;;;;;;5023528;28;20177;-80
2023/10/26 07:01:35;;;;;;;7.20;1.50;;;11.60;99.90;;;;;;5045941;28;20169;-80
2023/10/26 07:04:00;;;;;;;5.47;1.33;;;11.60;99.90;;;;;;5036137;28;20216;-81
2023/10/26 07:06:26;;;;;;;6.70;1.20;;;11.50;99.90;;;;;;5033749;28;20221;-82
2023/10/26 07:08:52;;;;;;;8.03;1.30;;;11.60;99.90;;;;;;5026727;28;20278;-80
2023/10/26 07:11:17;;;;;;;7.07;1.23;;;11.70;99.90;;;;;;5013742;28;20244;-81
2023/10/26 07:13:44;;;;;;;9.77;1.20;;;11.80;99.90;;;;;;5033774;28;20730;-82
2023/10/26 07:16:11;;;;;;;9.70;1.47;;;11.80;99.90;;;;;;5032893;28;20655;-81
2023/10/26 07:18:37;;;;;;;10.77;1.63;;;11.80;99.90;;;;;;5031810;28;20173;-81
2023/10/26 07:21:06;;;;;;;12.03;1.70;;;11.90;99.90;;;;;;5031042;28;20178;-80
2023/10/26 07:23:33;;;;;;;10.27;1.83;;;12.00;99.90;;;;;;5031489;28;20181;-80
2023/10/26 07:25:59;;;;;;;10.27;1.77;;;12.00;99.90;;;;;;5032452;28;20210;-80
2023/10/26 07:28:24;;;;;;;7.20;1.27;;;12.00;99.90;;;;;;5014406;28;20197;-80
2023/10/26 07:30:53;;;;;;;6.47;1.23;;;12.10;99.90;;;;;;5032133;28;20174;-80
2023/10/26 07:33:19;;;;;;;15.97;2.17;;;12.10;99.90;;;;;;5014109;28;20667;-79
2023/10/26 07:36:03;;;;;;;8.80;1.60;;;12.10;99.90;;;;;;5031859;28;20636;-79
2023/10/26 07:38:29;;;;;;;16.80;2.10;;;12.20;99.90;;;;;;5030566;28;20165;-79
2023/10/26 07:41:00;;;;;;;11.90;2.00;;;12.20;99.90;;;;;;5031452;28;20181;-81
2023/10/26 07:43:26;;;;;;;16.70;2.00;;;12.20;99.90;;;;;;5031482;28;20181;-80
2023/10/26 07:45:52;;;;;;;14.23;2.70;;;12.40;99.90;;;;;;5031367;28;20217;-79
2023/10/26 07:48:18;;;;;;;19.43;2.93;;;12.50;99.90;;;;;;5030124;28;20224;-81
2023/10/26 07:50:43;;;;;;;16.37;2.50;;;12.60;99.90;;;;;;5031262;28;20189;-79
2023/10/26 07:53:09;;;;;;;15.03;1.90;;;12.70;99.90;;;;;;5033236;28;20192;-79
2023/10/26 07:55:35;;;;;;;10.93;1.93;;;12.70;99.90;;;;;;5034875;28;20243;-79
2023/10/26 07:58:02;;;;;;;18.80;2.65;;;12.80;99.90;;;;;;5035064;28;20173;-76
2023/10/26 08:00:28;;;;;;;13.52;2.28;;;12.80;99.90;;;;;;5033446;28;20186;-79
2023/10/26 08:02:54;;;;;;;16.90;2.30;;;12.70;99.90;;;;;;5035712;28;20273;-80
2023/10/26 08:05:19;;;;;;;12.97;2.40;;;12.80;99.90;;;;;;5036587;28;20173;-79
2023/10/26 08:07:47;;;;;;;17.40;2.80;;;12.70;99.90;;;;;;5036790;28;20201;-79
2023/10/26 08:10:13;;;;;;;12.07;2.88;;;12.70;99.90;;;;;;5017695;28;20198;-81
2023/10/26 08:12:39;;;;;;;16.13;2.57;;;12.70;99.90;;;;;;5034569;28;20205;-79
2023/10/26 08:15:05;;;;;;;13.63;1.97;;;12.60;99.90;;;;;;5033947;28;20182;-79
2023/10/26 08:17:35;;;;;;;11.27;1.63;;;12.60;99.90;;;;;;5034978;28;20174;-78
2023/10/26 08:20:07;;;;;;;20.57;2.80;;;12.40;99.90;;;;;;5034023;28;20205;-78
2023/10/26 08:22:33;;;;;;;14.47;2.67;;;12.50;99.90;;;;;;5014894;28;20678;-79
2023/10/26 08:24:59;;;;;;;13.50;1.90;;;12.60;99.90;;;;;;5014958;28;20182;-79
2023/10/26 08:27:25;;;;;;;11.93;2.10;;;12.80;99.90;;;;;;5034290;28;20205;-79
2023/10/26 08:29:51;;;;;;;11.77;2.23;;;12.80;99.90;;;;;;5033809;28;20243;-80
2023/10/26 08:32:17;;;;;;;14.87;1.90;;;13.00;99.90;;;;;;5036287;28;20784;-82
2023/10/26 08:34:44;;;;;;;13.97;2.33;;;13.00;99.90;;;;;;5036264;28;20629;-82
2023/10/26 08:37:10;;;;;;;12.13;2.58;;;13.10;99.90;;;;;;5034665;28;20196;-82
2023/10/26 08:39:36;;;;;;;14.52;2.35;;;13.10;99.90;;;;;;5035022;28;20174;-82
2023/10/26 08:42:02;;;;;;;12.18;2.20;;;13.10;99.90;;;;;;5036521;28;20177;-79
2023/10/26 08:44:29;;;;;;;15.80;1.93;;;13.30;99.90;;;;;;5035942;28;20170;-77
2023/10/26 08:47:06;;;;;;;14.07;2.03;;;13.30;99.90;;;;;;5035958;28;20230;-85
2023/10/26 08:49:32;;;;;;;24.45;2.65;;;13.40;99.90;;;;;;5035722;28;20223;-79
2023/10/26 08:51:59;;;;;;;19.48;2.35;;;13.50;99.90;;;;;;5034334;28;20227;-79
2023/10/26 08:54:28;;;;;;;15.00;2.15;;;13.60;99.90;;;;;;5034930;28;20170;-81
2023/10/26 08:56:54;;;;;;;14.38;2.15;;;13.80;99.90;;;;;;5016161;28;20181;-79
2023/10/26 08:59:19;;;;;;;17.30;2.72;;;13.90;99.90;;;;;;5034697;28;20545;-80
2023/10/26 09:01:46;;;;;;;14.90;2.75;;;13.80;99.90;;;;;;5035754;28;20228;-78
2023/10/26 09:04:12;;;;;;;16.48;2.30;;;13.40;99.90;;;;;;5025080;28;20169;-77
2023/10/26 09:06:45;;;;;;;15.23;2.28;;;14.00;99.90;;;;;;5034279;28;20675;-79
2023/10/26 09:09:10;;;;;;;12.85;2.30;;;14.20;99.90;;;;;;5038656;28;20216;-79
2023/10/26 09:11:36;;;;;;;18.75;2.65;;;14.00;99.90;;;;;;5034858;28;20181;-78
2023/10/26 09:14:19;;;;;;;16.02;2.83;;;14.00;99.90;;;;;;5034832;28;20180;-77
2023/10/26 09:16:45;;;;;;;15.57;2.15;;;14.00;99.90;;;;;;5032721;28;20193;-77
2023/10/26 09:19:12;;;;;;;13.35;1.92;;;14.10;99.90;;;;;;4997339;28;20183;-78
2023/10/26 09:21:57;;;;;;;19.75;2.67;;;14.10;99.90;;;;;;5024714;28;20185;-79
2023/10/26 09:24:29;;;;;;;18.98;3.05;;;14.30;99.90;;;;;;5041713;28;20189;-77
2023/10/26 09:27:02;;;;;;;22.02;2.55;;;14.20;99.90;;;;;;5021757;28;20300;-77
2023/10/26 09:29:39;;;;;;;19.40;2.30;;;14.30;99.90;;;;;;5056383;28;20153;-80
2023/10/26 09:32:05;;;;;;;17.55;2.58;;;14.30;99.90;;;;;;5042543;28;20191;-83
2023/10/26 09:34:37;;;;;;;14.05;2.95;;;14.30;99.90;;;;;;5040556;28;20178;-81
2023/10/26 09:37:04;;;;;;;17.55;2.45;;;14.40;99.90;;;;;;5039330;28;20223;-80
2023/10/26 09:39:35;;;;;;;15.68;2.47;;;14.50;99.90;;;;;;5035262;28;20206;-76
2023/10/26 09:42:01;;;;;;;15.38;2.30;;;14.40;99.90;;;;;;5035203;28;20237;-78
2023/10/26 09:44:28;;;;;;;15.68;2.83;;;14.40;99.90;;;;;;5036177;28;20205;-80
2023/10/26 09:46:54;;;;;;;12.98;2.03;;;14.70;99.90;;;;;;5019570;28;20308;-80
2023/10/26 09:49:23;;;;;;;10.93;1.77;;;14.70;99.90;;;;;;5041464;28;20189;-79
2023/10/26 09:51:48;;;;;;;13.00;1.98;;;14.70;99.90;;;;;;5048081;28;20177;-80
2023/10/26 09:54:16;;;;;;;17.17;2.67;;;14.60;99.90;;;;;;5020024;28;20545;-82
2023/10/26 09:56:46;;;;;;;13.60;2.25;;;14.80;99.90;;;;;;5033991;28;20174;-80
2023/10/26 09:59:12;;;;;;;18.92;2.35;;;15.00;99.90;;;;;;5044492;28;20177;-85
2023/10/26 10:01:40;;;;;;;17.10;2.58;;;15.00;99.90;;;;;;5054832;28;20183;-84
2023/10/26 10:04:08;;;;;;;14.57;2.33;;;15.40;99.90;;;;;;5035480;28;20309;-84
2023/10/26 10:06:52;;;;;;;19.55;2.22;;;15.10;99.90;;;;;;5017572;28;20214;-83
2023/10/26 10:09:26;;;;;;;15.57;2.45;;;15.20;99.90;;;;;;5019931;28;20177;-80
2023/10/26 10:12:14;;;;;;;14.57;2.38;;;15.20;99.90;;;;;;5034346;28;20269;-80
2023/10/26 10:14:54;;;;;;;21.83;2.28;;;15.40;99.90;;;;;;5033392;28;20221;-82
2023/10/26 10:17:24;;;;;;;22.80;2.55;;;15.30;99.90;;;;;;5033709;28;20184;-84
2023/10/26 10:20:15;;;;;;;16.70;2.53;;;15.30;99.90;;;;;;5033670;28;20189;-82
2023/10/26 10:22:41;;;;;;;18.60;2.50;;;15.60;99.90;;;;;;5033647;28;20189;-83
2023/10/26 10:25:11;;;;;;;17.80;2.97;;;15.60;99.90;;;;;;5033442;28;20901;-84
2023/10/26 10:27:48;;;;;;;11.48;2.15;;;15.70;99.90;;;;;;5034448;28;20304;-83
2023/10/26 10:30:27;;;;;;;12.15;2.50;;;15.60;99.90;;;;;;5016572;28;20376;-81
2023/10/26 10:32:53;;;;;;;20.17;2.80;;;15.80;99.90;;;;;;5017144;28;20191;-83
2023/10/26 10:35:21;;;;;;;15.68;2.53;;;15.80;99.90;;;;;;5033796;28;20173;-85
2023/10/26 10:38:16;;;;;;;18.55;2.50;;;15.90;99.90;;;;;;5032771;28;20184;-83
2023/10/26 10:41:01;;;;;;;20.48;2.65;;;16.10;99.90;;;;;;5033181;28;20193;-83
2023/10/26 10:43:45;;;;;;;16.75;2.63;;;15.80;99.90;;;;;;5015212;28;20197;-84
2023/10/26 10:46:16;;;;;;;20.52;2.85;;;16.10;99.90;;;;;;5033188;28;20216;-85
2023/10/26 10:49:05;;;;;;;15.50;2.92;;;16.10;99.90;;;;;;5032985;28;20170;-86
2023/10/26 10:51:35;;;;;;;16.65;3.10;;;16.30;99.90;;;;;;5034833;28;20170;-85
2023/10/26 10:54:02;;;;;;;15.77;2.63;;;16.50;99.90;;;;;;5033040;28;20718;-86
2023/10/26 10:56:34;;;;;;;18.45;2.83;;;16.50;99.90;;;;;;5014901;28;20185;-82
2023/10/26 10:59:00;;;;;;;17.35;2.85;;;16.50;99.90;;;;;;5014781;28;20174;-87
2023/10/26 11:01:27;;;;;;;15.40;2.58;;;16.80;99.90;;;;;;5033433;28;20174;-87
2023/10/26 11:04:03;;;;;;;19.95;3.15;;;17.10;99.90;;;;;;5025656;28;20170;-85
2023/10/26 11:06:30;;;;;;;20.15;3.08;;;17.20;99.90;;;;;;5014094;28;20295;-78
2023/10/26 11:08:55;;;;;;;15.38;2.22;;;17.60;99.90;;;;;;5031503;28;20389;-82
2023/10/26 11:11:27;;;;;;;16.73;2.88;;;18.50;99.90;;;;;;5013625;28;20700;-80
2023/10/26 11:14:28;;;;;;;18.80;2.35;;;19.40;99.90;;;;;;5032389;28;20183;-82
2023/10/26 11:16:53;;;;;;;15.88;2.80;;;21.40;99.90;;;;;;4988268;28;20178;-83
2023/10/26 11:19:19;;;;;;;15.30;2.50;;;23.40;99.90;;;;;;5014160;28;20174;-84
2023/10/26 11:21:45;;;;;;;11.20;2.28;;;24.50;99.90;;;;;;5032060;28;20170;-84
2023/10/26 11:24:16;;;;;;;16.25;2.58;;;25.50;99.90;;;;;;5031922;28;20259;-82
2023/10/26 11:26:42;;;;;;;10.82;2.25;;;25.80;99.90;;;;;;5031014;28;20212;-85
2023/10/26 11:29:16;;;;;;;14.50;2.42;;;26.00;99.90;;;;;;5031367;28;20182;-82
2023/10/26 11:31:42;;;;;;;14.15;3.03;;;25.40;99.90;;;;;;5031533;28;20177;-82
2023/10/26 11:34:09;;;;;;;17.40;3.17;;;25.90;99.90;;;;;;5029972;28;20182;-83
2023/10/26 11:36:36;;;;;;;14.60;2.50;;;26.90;99.90;;;;;;5029770;28;20186;-84
2023/10/26 11:39:03;;;;;;;15.07;2.90;;;27.30;99.90;;;;;;5029789;28;20231;-82
2023/10/26 11:41:29;;;;;;;11.82;2.42;;;;;;;;;;5030086;28;20174;-81
2023/10/26 11:43:56;;;;;;;15.68;2.72;;;25.60;1.00;;;;;;5029585;28;20196;-84
2023/10/26 11:46:35;;;;;;;10.55;2.63;;;22.50;1.00;;;;;;5029626;28;20876;-85
2023/10/26 11:49:05;;;;;;;13.48;2.60;;;21.10;1.00;;;;;;5031723;28;20256;-82
2023/10/26 11:51:31;;;;;;;14.05;2.55;;;20.40;1.00;;;;;;5031980;28;20181;-84
2023/10/26 11:54:10;;;;;;;13.00;2.67;;;21.40;1.00;;;;;;5031838;28;20218;-82
2023/10/26 11:56:35;;;;;;;13.55;2.30;;;21.10;99.90;;;;;;5019186;28;20173;-80
2023/10/26 11:59:01;;;;;;;14.07;2.65;;;23.10;1.00;;;;;;5019998;28;20177;-81
2023/10/26 12:01:27;;;;;;;15.88;2.65;;;23.90;1.00;;;;;;5035449;28;20162;-80
2023/10/26 12:03:52;;;;;;;11.55;2.00;;;24.00;99.90;;;;;;5055930;28;20174;-83
2023/10/26 12:06:18;;;;;;;12.70;2.40;;;24.70;1.00;;;;;;5044250;28;20216;-83
2023/10/26 12:08:43;;;;;;;12.07;3.08;;;26.20;1.00;;;;;;5033998;28;20520;-85
2023/10/26 12:11:10;;;;;;;9.75;2.20;;;27.00;99.90;;;;;;5032868;28;20181;-80
2023/10/26 12:13:36;;;;;;;7.93;1.75;;;26.70;1.00;;;;;;5033220;28;20185;-81
2023/10/26 12:16:02;;;;;;;9.93;2.22;;;26.50;1.00;;;;;;5032284;28;20173;-82
2023/10/26 12:18:28;;;;;;;10.20;2.22;;;26.90;1.00;;;;;;5030661;28;20531;-79
2023/10/26 12:20:54;;;;;;;10.82;2.13;;;25.90;1.00;;;;;;5028146;28;20194;-75
2023/10/26 12:23:19;;;;;;;11.10;1.83;;;25.90;1.00;;;;;;5029751;28;20184;-84
2023/10/26 12:25:45;;;;;;;10.90;2.30;;;26.40;1.00;;;;;;5032016;28;20209;-87
2023/10/26 12:28:10;;;;;;;9.55;2.10;;;25.40;99.90;;;;;;5031565;28;20178;-84
2023/10/26 12:30:36;;;;;;;10.18;2.30;;;26.30;99.90;;;;;;5031727;28;20641;-88
2023/10/26 12:33:02;;;;;;;10.73;2.70;;;24.70;99.90;;;;;;5033332;28;20252;-86
2023/10/26 12:35:28;;;;;;;8.90;2.35;;;24.10;99.90;;;;;;5033501;28;20174;-86
2023/10/26 12:37:53;;;;;;;12.80;2.08;;;23.00;1.00;;;;;;5032345;28;20178;-84